sensor_id;sensor_type;location;lat;lon;timestamp;P1;durP1;ratioP1;P2;durP2;ratioP2
69730;SDS011;56996;48.138;11.538;2024-01-15T00:00:20;8.90;;;2.50;;
69730;SDS011;56996;48.138;11.538;2024-01-15T00:02:47;9.00;;;2.90;;
69730;SDS011;56996;48.138;11.538;2024-01-15T00:05:13;10.10;;;3.10;;
69730;SDS011;56996;48.138;11.538;2024-01-15T00:07:40;9.10;;;3.30;;
69730;SDS011;56996;48.138;11.538;2024-01-15T00:10:07;8.50;;;3.10;;
69730;SDS011;56996;48.138;11.538;2024-01-15T00:12:34;9.70;;;2.70;;
69730;SDS011;56996;48.138;11.538;2024-01-15T00:15:00;9.30;;;3.00;;
69730;SDS011;56996;48.138;11.538;2024-01-15T00:17:27;9.50;;;2.90;;
69730;SDS011;56996;48.138;11.538;2024-01-15T00:19:54;11.00;;;3.30;;
69730;SDS011;56996;48.138;11.538;2024-01-15T00:22:21;9.00;;;3.10;;
69730;SDS011;56996;48.138;11.538;2024-01-15T00:24:47;8.50;;;2.50;;
69730;SDS011;56996;48.138;11.538;2024-01-15T00:27:14;9.80;;;2.70;;
69730;SDS011;56996;48.138;11.538;2024-01-15T00:29:41;9.30;;;2.90;;
69730;SDS011;56996;48.138;11.538;2024-01-15T00:32:08;8.10;;;2.80;;
69730;SDS011;56996;48.138;11.538;2024-01-15T00:34:35;8.50;;;2.70;;
69730;SDS011;56996;48.138;11.538;2024-01-15T00:37:02;9.60;;;3.10;;
69730;SDS011;56996;48.138;11.538;2024-01-15T00:39:29;9.70;;;3.30;;
69730;SDS011;56996;48.138;11.538;2024-01-15T00:41:56;9.30;;;2.90;;
69730;SDS011;56996;48.138;11.538;2024-01-15T00:44:22;10.60;;;3.50;;
69730;SDS011;56996;48.138;11.538;2024-01-15T00:46:49;10.40;;;3.10;;
69730;SDS011;56996;48.138;11.538;2024-01-15T00:49:16;9.00;;;3.10;;
69730;SDS011;56996;48.138;11.538;2024-01-15T00:51:43;10.20;;;3.00;;
69730;SDS011;56996;48.138;11.538;2024-01-15T00:54:10;8.10;;;2.80;;
69730;SDS011;56996;48.138;11.538;2024-01-15T00:56:37;8.50;;;2.40;;
69730;SDS011;56996;48.138;11.538;2024-01-15T00:59:03;11.00;;;3.70;;
69730;SDS011;56996;48.138;11.538;2024-01-15T01:01:31;9.90;;;3.30;;
69730;SDS011;56996;48.138;11.538;2024-01-15T01:03:58;9.70;;;3.30;;
69730;SDS011;56996;48.138;11.538;2024-01-15T01:06:25;9.00;;;3.00;;
69730;SDS011;56996;48.138;11.538;2024-01-15T01:08:52;11.70;;;4.20;;
69730;SDS011;56996;48.138;11.538;2024-01-15T01:11:18;10.50;;;2.80;;
69730;SDS011;56996;48.138;11.538;2024-01-15T01:13:45;11.60;;;4.20;;
69730;SDS011;56996;48.138;11.538;2024-01-15T01:16:12;13.70;;;5.00;;
69730;SDS011;56996;48.138;11.538;2024-01-15T01:18:38;12.60;;;4.40;;
69730;SDS011;56996;48.138;11.538;2024-01-15T01:21:05;13.40;;;4.90;;
69730;SDS011;56996;48.138;11.538;2024-01-15T01:23:32;13.90;;;5.00;;
69730;SDS011;56996;48.138;11.538;2024-01-15T01:25:59;10.80;;;3.80;;
69730;SDS011;56996;48.138;11.538;2024-01-15T01:28:26;13.50;;;4.70;;
69730;SDS011;56996;48.138;11.538;2024-01-15T01:30:53;12.80;;;4.60;;
69730;SDS011;56996;48.138;11.538;2024-01-15T01:33:19;13.60;;;4.40;;
69730;SDS011;56996;48.138;11.538;2024-01-15T01:35:46;13.40;;;4.40;;
69730;SDS011;56996;48.138;11.538;2024-01-15T01:38:13;11.20;;;3.50;;
69730;SDS011;56996;48.138;11.538;2024-01-15T01:40:40;13.60;;;4.80;;
69730;SDS011;56996;48.138;11.538;2024-01-15T01:43:09;11.30;;;3.80;;
69730;SDS011;56996;48.138;11.538;2024-01-15T01:45:36;12.50;;;3.90;;
69730;SDS011;56996;48.138;11.538;2024-01-15T01:48:04;15.00;;;4.90;;
69730;SDS011;56996;48.138;11.538;2024-01-15T01:50:31;14.50;;;4.70;;
69730;SDS011;56996;48.138;11.538;2024-01-15T01:53:00;12.80;;;3.80;;
69730;SDS011;56996;48.138;11.538;2024-01-15T01:55:29;10.60;;;4.00;;
69730;SDS011;56996;48.138;11.538;2024-01-15T01:57:56;11.60;;;3.80;;
69730;SDS011;56996;48.138;11.538;2024-01-15T02:00:23;13.00;;;4.60;;
69730;SDS011;56996;48.138;11.538;2024-01-15T02:02:50;14.20;;;4.20;;
69730;SDS011;56996;48.138;11.538;2024-01-15T02:05:19;10.90;;;3.80;;
69730;SDS011;56996;48.138;11.538;2024-01-15T02:07:47;11.40;;;3.90;;
69730;SDS011;56996;48.138;11.538;2024-01-15T02:10:14;9.70;;;3.50;;
69730;SDS011;56996;48.138;11.538;2024-01-15T02:12:42;11.20;;;3.80;;
69730;SDS011;56996;48.138;11.538;2024-01-15T02:15:09;11.10;;;4.10;;
69730;SDS011;56996;48.138;11.538;2024-01-15T02:17:59;12.40;;;4.10;;
69730;SDS011;56996;48.138;11.538;2024-01-15T02:20:28;13.10;;;4.50;;
69730;SDS011;56996;48.138;11.538;2024-01-15T02:23:05;11.20;;;3.40;;
69730;SDS011;56996;48.138;11.538;2024-01-15T02:25:42;10.40;;;3.30;;
69730;SDS011;56996;48.138;11.538;2024-01-15T02:28:15;12.50;;;4.10;;
69730;SDS011;56996;48.138;11.538;2024-01-15T02:30:43;13.40;;;4.50;;
69730;SDS011;56996;48.138;11.538;2024-01-15T02:33:11;13.00;;;4.50;;
69730;SDS011;56996;48.138;11.538;2024-01-15T02:35:39;12.30;;;4.10;;
69730;SDS011;56996;48.138;11.538;2024-01-15T02:38:06;12.70;;;4.40;;
69730;SDS011;56996;48.138;11.538;2024-01-15T02:40:35;13.10;;;4.10;;
69730;SDS011;56996;48.138;11.538;2024-01-15T02:43:02;11.30;;;4.00;;
69730;SDS011;56996;48.138;11.538;2024-01-15T02:45:29;13.30;;;4.70;;
69730;SDS011;56996;48.138;11.538;2024-01-15T02:47:56;12.00;;;4.00;;
69730;SDS011;56996;48.138;11.538;2024-01-15T02:50:23;13.60;;;4.20;;
69730;SDS011;56996;48.138;11.538;2024-01-15T02:52:49;11.90;;;3.60;;
69730;SDS011;56996;48.138;11.538;2024-01-15T02:55:16;12.90;;;4.70;;
69730;SDS011;56996;48.138;11.538;2024-01-15T02:57:43;14.20;;;4.80;;
69730;SDS011;56996;48.138;11.538;2024-01-15T03:00:11;11.40;;;4.00;;
69730;SDS011;56996;48.138;11.538;2024-01-15T03:02:43;11.80;;;4.40;;
69730;SDS011;56996;48.138;11.538;2024-01-15T03:05:14;12.20;;;4.30;;
69730;SDS011;56996;48.138;11.538;2024-01-15T03:07:41;13.40;;;4.50;;
69730;SDS011;56996;48.138;11.538;2024-01-15T03:10:08;12.50;;;4.80;;
69730;SDS011;56996;48.138;11.538;2024-01-15T03:12:35;12.80;;;4.30;;
69730;SDS011;56996;48.138;11.538;2024-01-15T03:15:02;14.30;;;4.90;;
69730;SDS011;56996;48.138;11.538;2024-01-15T03:17:29;11.50;;;4.00;;
69730;SDS011;56996;48.138;11.538;2024-01-15T03:19:56;13.20;;;4.30;;
69730;SDS011;56996;48.138;11.538;2024-01-15T03:22:23;11.90;;;4.10;;
69730;SDS011;56996;48.138;11.538;2024-01-15T03:24:50;13.20;;;4.10;;
69730;SDS011;56996;48.138;11.538;2024-01-15T03:27:16;10.80;;;3.50;;
69730;SDS011;56996;48.138;11.538;2024-01-15T03:29:43;11.20;;;3.70;;
69730;SDS011;56996;48.138;11.538;2024-01-15T03:32:10;11.40;;;3.50;;
69730;SDS011;56996;48.138;11.538;2024-01-15T03:34:37;11.40;;;3.30;;
69730;SDS011;56996;48.138;11.538;2024-01-15T03:37:04;11.10;;;3.40;;
69730;SDS011;56996;48.138;11.538;2024-01-15T03:39:31;11.90;;;3.80;;
69730;SDS011;56996;48.138;11.538;2024-01-15T03:41:58;11.80;;;3.30;;
69730;SDS011;56996;48.138;11.538;2024-01-15T03:44:24;11.10;;;3.60;;
69730;SDS011;56996;48.138;11.538;2024-01-15T03:46:51;11.40;;;3.70;;
69730;SDS011;56996;48.138;11.538;2024-01-15T03:49:18;11.60;;;3.70;;
69730;SDS011;56996;48.138;11.538;2024-01-15T03:51:45;9.30;;;3.10;;
69730;SDS011;56996;48.138;11.538;2024-01-15T03:54:12;10.90;;;3.20;;
69730;SDS011;56996;48.138;11.538;2024-01-15T03:56:39;11.60;;;3.80;;
69730;SDS011;56996;48.138;11.538;2024-01-15T03:59:05;11.90;;;4.40;;
69730;SDS011;56996;48.138;11.538;2024-01-15T04:01:32;12.70;;;4.10;;
69730;SDS011;56996;48.138;11.538;2024-01-15T04:03:59;11.60;;;3.60;;
69730;SDS011;56996;48.138;11.538;2024-01-15T04:06:26;11.70;;;3.40;;
69730;SDS011;56996;48.138;11.538;2024-01-15T04:08:52;11.80;;;3.90;;
69730;SDS011;56996;48.138;11.538;2024-01-15T04:11:19;14.30;;;3.70;;
69730;SDS011;56996;48.138;11.538;2024-01-15T04:13:46;11.70;;;3.50;;
69730;SDS011;56996;48.138;11.538;2024-01-15T04:16:12;9.90;;;3.10;;
69730;SDS011;56996;48.138;11.538;2024-01-15T04:18:39;10.90;;;3.30;;
69730;SDS011;56996;48.138;11.538;2024-01-15T04:21:06;11.20;;;3.50;;
69730;SDS011;56996;48.138;11.538;2024-01-15T04:23:33;11.50;;;3.70;;
69730;SDS011;56996;48.138;11.538;2024-01-15T04:26:00;10.80;;;3.60;;
69730;SDS011;56996;48.138;11.538;2024-01-15T04:28:27;11.10;;;3.80;;
69730;SDS011;56996;48.138;11.538;2024-01-15T04:30:53;11.70;;;3.90;;
69730;SDS011;56996;48.138;11.538;2024-01-15T04:33:20;10.60;;;3.40;;
69730;SDS011;56996;48.138;11.538;2024-01-15T04:35:47;11.60;;;3.70;;
69730;SDS011;56996;48.138;11.538;2024-01-15T04:38:14;11.30;;;3.50;;
69730;SDS011;56996;48.138;11.538;2024-01-15T04:40:40;9.20;;;2.90;;
69730;SDS011;56996;48.138;11.538;2024-01-15T04:43:07;11.20;;;3.60;;
69730;SDS011;56996;48.138;11.538;2024-01-15T04:45:34;10.30;;;3.30;;
69730;SDS011;56996;48.138;11.538;2024-01-15T04:48:01;11.00;;;3.30;;
69730;SDS011;56996;48.138;11.538;2024-01-15T04:50:29;9.70;;;3.10;;
69730;SDS011;56996;48.138;11.538;2024-01-15T04:52:56;10.00;;;3.20;;
69730;SDS011;56996;48.138;11.538;2024-01-15T04:55:23;10.90;;;3.40;;
69730;SDS011;56996;48.138;11.538;2024-01-15T04:57:49;10.30;;;3.40;;
69730;SDS011;56996;48.138;11.538;2024-01-15T05:00:17;10.00;;;3.20;;
69730;SDS011;56996;48.138;11.538;2024-01-15T05:02:43;10.50;;;3.30;;
69730;SDS011;56996;48.138;11.538;2024-01-15T05:05:10;8.20;;;3.10;;
69730;SDS011;56996;48.138;11.538;2024-01-15T05:07:38;10.00;;;3.20;;
69730;SDS011;56996;48.138;11.538;2024-01-15T05:10:05;9.80;;;3.10;;
69730;SDS011;56996;48.138;11.538;2024-01-15T05:12:34;10.20;;;3.00;;
69730;SDS011;56996;48.138;11.538;2024-01-15T05:15:01;9.60;;;3.00;;
69730;SDS011;56996;48.138;11.538;2024-01-15T05:17:27;11.70;;;3.10;;
69730;SDS011;56996;48.138;11.538;2024-01-15T05:19:54;9.70;;;3.20;;
69730;SDS011;56996;48.138;11.538;2024-01-15T05:22:21;9.60;;;2.80;;
69730;SDS011;56996;48.138;11.538;2024-01-15T05:24:51;9.10;;;3.10;;
69730;SDS011;56996;48.138;11.538;2024-01-15T05:27:18;9.90;;;3.10;;
69730;SDS011;56996;48.138;11.538;2024-01-15T05:29:45;7.70;;;2.20;;
69730;SDS011;56996;48.138;11.538;2024-01-15T05:32:11;9.90;;;2.70;;
69730;SDS011;56996;48.138;11.538;2024-01-15T05:34:38;10.70;;;3.20;;
69730;SDS011;56996;48.138;11.538;2024-01-15T05:37:05;10.70;;;3.30;;
69730;SDS011;56996;48.138;11.538;2024-01-15T05:39:32;9.00;;;2.70;;
69730;SDS011;56996;48.138;11.538;2024-01-15T05:41:58;8.90;;;2.90;;
69730;SDS011;56996;48.138;11.538;2024-01-15T05:44:26;11.00;;;4.60;;
69730;SDS011;56996;48.138;11.538;2024-01-15T05:46:53;9.70;;;3.10;;
69730;SDS011;56996;48.138;11.538;2024-01-15T05:49:20;11.10;;;3.40;;
69730;SDS011;56996;48.138;11.538;2024-01-15T05:51:47;10.60;;;3.50;;
69730;SDS011;56996;48.138;11.538;2024-01-15T05:54:14;9.90;;;3.50;;
69730;SDS011;56996;48.138;11.538;2024-01-15T05:56:42;11.20;;;3.60;;
69730;SDS011;56996;48.138;11.538;2024-01-15T05:59:09;10.30;;;3.40;;
69730;SDS011;56996;48.138;11.538;2024-01-15T06:01:40;11.50;;;3.40;;
69730;SDS011;56996;48.138;11.538;2024-01-15T06:04:07;10.50;;;2.90;;
69730;SDS011;56996;48.138;11.538;2024-01-15T06:06:33;8.70;;;2.90;;
69730;SDS011;56996;48.138;11.538;2024-01-15T06:09:00;9.70;;;3.00;;
69730;SDS011;56996;48.138;11.538;2024-01-15T06:11:32;9.80;;;2.90;;
69730;SDS011;56996;48.138;11.538;2024-01-15T06:13:59;10.40;;;3.00;;
69730;SDS011;56996;48.138;11.538;2024-01-15T06:16:28;10.10;;;2.60;;
69730;SDS011;56996;48.138;11.538;2024-01-15T06:18:55;9.10;;;2.50;;
69730;SDS011;56996;48.138;11.538;2024-01-15T06:21:22;9.40;;;2.90;;
69730;SDS011;56996;48.138;11.538;2024-01-15T06:23:49;9.30;;;2.90;;
69730;SDS011;56996;48.138;11.538;2024-01-15T06:26:16;9.20;;;2.70;;
69730;SDS011;56996;48.138;11.538;2024-01-15T06:28:42;8.90;;;2.80;;
69730;SDS011;56996;48.138;11.538;2024-01-15T06:31:10;7.70;;;2.50;;
69730;SDS011;56996;48.138;11.538;2024-01-15T06:33:37;9.30;;;2.90;;
69730;SDS011;56996;48.138;11.538;2024-01-15T06:36:05;11.10;;;3.50;;
69730;SDS011;56996;48.138;11.538;2024-01-15T06:38:32;9.80;;;3.10;;
69730;SDS011;56996;48.138;11.538;2024-01-15T06:40:59;9.10;;;2.90;;
69730;SDS011;56996;48.138;11.538;2024-01-15T06:43:25;10.10;;;2.60;;
69730;SDS011;56996;48.138;11.538;2024-01-15T06:45:52;10.40;;;3.00;;
69730;SDS011;56996;48.138;11.538;2024-01-15T06:48:19;9.40;;;3.00;;
69730;SDS011;56996;48.138;11.538;2024-01-15T06:50:46;8.80;;;3.30;;
69730;SDS011;56996;48.138;11.538;2024-01-15T06:53:13;11.20;;;3.00;;
69730;SDS011;56996;48.138;11.538;2024-01-15T06:55:40;10.40;;;3.30;;
69730;SDS011;56996;48.138;11.538;2024-01-15T06:58:07;12.40;;;3.80;;
69730;SDS011;56996;48.138;11.538;2024-01-15T07:00:34;10.80;;;3.40;;
69730;SDS011;56996;48.138;11.538;2024-01-15T07:03:01;11.30;;;2.80;;
69730;SDS011;56996;48.138;11.538;2024-01-15T07:05:28;9.30;;;3.10;;
69730;SDS011;56996;48.138;11.538;2024-01-15T07:07:56;10.00;;;3.30;;
69730;SDS011;56996;48.138;11.538;2024-01-15T07:10:23;9.70;;;3.20;;
69730;SDS011;56996;48.138;11.538;2024-01-15T07:12:50;9.70;;;3.10;;
69730;SDS011;56996;48.138;11.538;2024-01-15T07:15:16;8.50;;;2.70;;
69730;SDS011;56996;48.138;11.538;2024-01-15T07:17:43;9.70;;;2.90;;
69730;SDS011;56996;48.138;11.538;2024-01-15T07:20:10;11.90;;;3.30;;
69730;SDS011;56996;48.138;11.538;2024-01-15T07:22:37;9.20;;;3.00;;
69730;SDS011;56996;48.138;11.538;2024-01-15T07:25:05;9.70;;;2.80;;
69730;SDS011;56996;48.138;11.538;2024-01-15T07:27:33;8.70;;;2.70;;
69730;SDS011;56996;48.138;11.538;2024-01-15T07:30:00;12.10;;;3.50;;
69730;SDS011;56996;48.138;11.538;2024-01-15T07:32:28;9.70;;;3.10;;
69730;SDS011;56996;48.138;11.538;2024-01-15T07:34:55;10.40;;;3.00;;
69730;SDS011;56996;48.138;11.538;2024-01-15T07:37:22;9.50;;;3.80;;
69730;SDS011;56996;48.138;11.538;2024-01-15T07:39:50;11.40;;;4.20;;
69730;SDS011;56996;48.138;11.538;2024-01-15T07:42:17;9.30;;;3.10;;
69730;SDS011;56996;48.138;11.538;2024-01-15T07:44:43;8.20;;;2.80;;
69730;SDS011;56996;48.138;11.538;2024-01-15T07:47:11;10.20;;;3.20;;
69730;SDS011;56996;48.138;11.538;2024-01-15T07:49:38;10.60;;;3.60;;
69730;SDS011;56996;48.138;11.538;2024-01-15T07:52:05;10.60;;;3.60;;
69730;SDS011;56996;48.138;11.538;2024-01-15T07:54:32;10.30;;;3.50;;
69730;SDS011;56996;48.138;11.538;2024-01-15T07:57:01;9.90;;;3.60;;
69730;SDS011;56996;48.138;11.538;2024-01-15T07:59:31;11.20;;;3.00;;
69730;SDS011;56996;48.138;11.538;2024-01-15T08:01:59;11.10;;;3.90;;
69730;SDS011;56996;48.138;11.538;2024-01-15T08:04:26;10.50;;;3.50;;
69730;SDS011;56996;48.138;11.538;2024-01-15T08:06:54;11.70;;;3.50;;
69730;SDS011;56996;48.138;11.538;2024-01-15T08:09:21;8.60;;;3.00;;
69730;SDS011;56996;48.138;11.538;2024-01-15T08:11:47;13.40;;;3.60;;
69730;SDS011;56996;48.138;11.538;2024-01-15T08:14:17;10.30;;;3.60;;
69730;SDS011;56996;48.138;11.538;2024-01-15T08:16:44;10.30;;;3.50;;
69730;SDS011;56996;48.138;11.538;2024-01-15T08:19:11;9.70;;;2.80;;
69730;SDS011;56996;48.138;11.538;2024-01-15T08:21:38;11.30;;;4.20;;
69730;SDS011;56996;48.138;11.538;2024-01-15T08:24:05;10.30;;;3.40;;
69730;SDS011;56996;48.138;11.538;2024-01-15T08:26:32;9.70;;;3.00;;
69730;SDS011;56996;48.138;11.538;2024-01-15T08:28:59;9.50;;;3.00;;
69730;SDS011;56996;48.138;11.538;2024-01-15T08:31:26;9.80;;;3.20;;
69730;SDS011;56996;48.138;11.538;2024-01-15T08:33:54;10.00;;;3.20;;
69730;SDS011;56996;48.138;11.538;2024-01-15T08:36:23;13.70;;;3.70;;
69730;SDS011;56996;48.138;11.538;2024-01-15T08:38:51;8.80;;;2.80;;
69730;SDS011;56996;48.138;11.538;2024-01-15T08:41:18;10.30;;;3.10;;
69730;SDS011;56996;48.138;11.538;2024-01-15T08:43:44;9.30;;;3.10;;
69730;SDS011;56996;48.138;11.538;2024-01-15T08:46:11;11.70;;;3.80;;
69730;SDS011;56996;48.138;11.538;2024-01-15T08:48:38;10.30;;;2.70;;
69730;SDS011;56996;48.138;11.538;2024-01-15T08:51:06;9.60;;;3.20;;
69730;SDS011;56996;48.138;11.538;2024-01-15T08:53:35;9.90;;;2.90;;
69730;SDS011;56996;48.138;11.538;2024-01-15T08:56:01;9.40;;;3.10;;
69730;SDS011;56996;48.138;11.538;2024-01-15T08:58:28;10.30;;;3.20;;
69730;SDS011;56996;48.138;11.538;2024-01-15T09:00:55;10.00;;;3.00;;
69730;SDS011;56996;48.138;11.538;2024-01-15T09:03:22;10.30;;;3.30;;
69730;SDS011;56996;48.138;11.538;2024-01-15T09:05:49;11.10;;;3.30;;
69730;SDS011;56996;48.138;11.538;2024-01-15T09:08:16;10.80;;;3.20;;
69730;SDS011;56996;48.138;11.538;2024-01-15T09:10:43;10.40;;;3.60;;
69730;SDS011;56996;48.138;11.538;2024-01-15T09:13:10;10.00;;;3.60;;
69730;SDS011;56996;48.138;11.538;2024-01-15T09:15:37;12.00;;;3.70;;
69730;SDS011;56996;48.138;11.538;2024-01-15T09:18:03;9.60;;;4.10;;
69730;SDS011;56996;48.138;11.538;2024-01-15T09:20:34;9.40;;;3.00;;
69730;SDS011;56996;48.138;11.538;2024-01-15T09:23:00;10.10;;;3.60;;
69730;SDS011;56996;48.138;11.538;2024-01-15T09:25:27;9.10;;;3.00;;
69730;SDS011;56996;48.138;11.538;2024-01-15T09:27:54;11.30;;;4.10;;
69730;SDS011;56996;48.138;11.538;2024-01-15T09:30:21;11.00;;;3.80;;
69730;SDS011;56996;48.138;11.538;2024-01-15T09:32:48;11.10;;;3.50;;
69730;SDS011;56996;48.138;11.538;2024-01-15T09:35:15;10.30;;;2.90;;
69730;SDS011;56996;48.138;11.538;2024-01-15T09:37:42;9.00;;;2.70;;
69730;SDS011;56996;48.138;11.538;2024-01-15T09:40:14;8.60;;;2.70;;
69730;SDS011;56996;48.138;11.538;2024-01-15T09:42:42;10.40;;;3.50;;
69730;SDS011;56996;48.138;11.538;2024-01-15T09:45:11;10.40;;;3.30;;
69730;SDS011;56996;48.138;11.538;2024-01-15T09:47:40;8.90;;;3.00;;
69730;SDS011;56996;48.138;11.538;2024-01-15T09:50:13;9.10;;;2.40;;
69730;SDS011;56996;48.138;11.538;2024-01-15T09:52:43;10.20;;;3.10;;
69730;SDS011;56996;48.138;11.538;2024-01-15T09:55:13;13.40;;;4.20;;
69730;SDS011;56996;48.138;11.538;2024-01-15T09:57:40;9.90;;;3.60;;
69730;SDS011;56996;48.138;11.538;2024-01-15T10:00:07;8.70;;;2.90;;
69730;SDS011;56996;48.138;11.538;2024-01-15T10:02:37;8.30;;;2.50;;
69730;SDS011;56996;48.138;11.538;2024-01-15T10:05:04;9.10;;;2.50;;
69730;SDS011;56996;48.138;11.538;2024-01-15T10:07:35;11.70;;;3.80;;
69730;SDS011;56996;48.138;11.538;2024-01-15T10:10:03;8.00;;;2.50;;
69730;SDS011;56996;48.138;11.538;2024-01-15T10:12:30;8.00;;;3.10;;
69730;SDS011;56996;48.138;11.538;2024-01-15T10:14:57;9.10;;;2.80;;
69730;SDS011;56996;48.138;11.538;2024-01-15T10:17:24;9.00;;;2.90;;
69730;SDS011;56996;48.138;11.538;2024-01-15T10:19:54;8.40;;;2.40;;
69730;SDS011;56996;48.138;11.538;2024-01-15T10:22:21;10.90;;;3.50;;
69730;SDS011;56996;48.138;11.538;2024-01-15T10:24:48;9.40;;;2.70;;
69730;SDS011;56996;48.138;11.538;2024-01-15T10:27:16;10.70;;;3.90;;
69730;SDS011;56996;48.138;11.538;2024-01-15T10:29:43;7.90;;;2.50;;
69730;SDS011;56996;48.138;11.538;2024-01-15T10:32:11;8.50;;;2.20;;
69730;SDS011;56996;48.138;11.538;2024-01-15T10:34:41;7.90;;;2.50;;
69730;SDS011;56996;48.138;11.538;2024-01-15T10:37:10;8.20;;;2.70;;
69730;SDS011;56996;48.138;11.538;2024-01-15T10:39:37;9.70;;;2.90;;
69730;SDS011;56996;48.138;11.538;2024-01-15T10:42:05;8.60;;;2.20;;
69730;SDS011;56996;48.138;11.538;2024-01-15T10:44:34;10.20;;;3.90;;
69730;SDS011;56996;48.138;11.538;2024-01-15T10:47:01;8.80;;;2.50;;
69730;SDS011;56996;48.138;11.538;2024-01-15T10:49:28;8.80;;;2.40;;
69730;SDS011;56996;48.138;11.538;2024-01-15T10:52:00;10.50;;;2.60;;
69730;SDS011;56996;48.138;11.538;2024-01-15T10:54:29;7.90;;;2.30;;
69730;SDS011;56996;48.138;11.538;2024-01-15T10:56:56;7.00;;;2.00;;
69730;SDS011;56996;48.138;11.538;2024-01-15T10:59:23;8.40;;;2.10;;
69730;SDS011;56996;48.138;11.538;2024-01-15T11:01:52;8.30;;;2.60;;
69730;SDS011;56996;48.138;11.538;2024-01-15T11:04:23;10.50;;;3.80;;
69730;SDS011;56996;48.138;11.538;2024-01-15T11:06:54;8.10;;;3.00;;
69730;SDS011;56996;48.138;11.538;2024-01-15T11:09:25;9.20;;;3.10;;
69730;SDS011;56996;48.138;11.538;2024-01-15T11:12:07;9.90;;;3.20;;
69730;SDS011;56996;48.138;11.538;2024-01-15T11:15:02;8.80;;;2.70;;
69730;SDS011;56996;48.138;11.538;2024-01-15T11:17:58;8.20;;;2.10;;
69730;SDS011;56996;48.138;11.538;2024-01-15T11:20:27;8.20;;;2.60;;
69730;SDS011;56996;48.138;11.538;2024-01-15T11:22:54;12.30;;;5.10;;
69730;SDS011;56996;48.138;11.538;2024-01-15T11:25:23;8.10;;;2.70;;
69730;SDS011;56996;48.138;11.538;2024-01-15T11:27:51;10.50;;;3.50;;
69730;SDS011;56996;48.138;11.538;2024-01-15T11:30:24;8.50;;;2.30;;
69730;SDS011;56996;48.138;11.538;2024-01-15T11:32:52;8.50;;;2.20;;
69730;SDS011;56996;48.138;11.538;2024-01-15T11:35:19;8.60;;;2.60;;
69730;SDS011;56996;48.138;11.538;2024-01-15T11:42:59;7.10;;;2.30;;
69730;SDS011;56996;48.138;11.538;2024-01-15T11:45:26;7.00;;;1.70;;
69730;SDS011;56996;48.138;11.538;2024-01-15T11:48:09;7.30;;;2.10;;
69730;SDS011;56996;48.138;11.538;2024-01-15T11:50:46;7.00;;;2.30;;
69730;SDS011;56996;48.138;11.538;2024-01-15T11:53:18;7.90;;;1.80;;
69730;SDS011;56996;48.138;11.538;2024-01-15T11:55:52;6.40;;;1.60;;
69730;SDS011;56996;48.138;11.538;2024-01-15T11:58:20;7.90;;;2.20;;
69730;SDS011;56996;48.138;11.538;2024-01-15T12:00:48;7.70;;;2.10;;
69730;SDS011;56996;48.138;11.538;2024-01-15T12:03:22;6.40;;;1.80;;
69730;SDS011;56996;48.138;11.538;2024-01-15T12:05:52;6.40;;;2.00;;
69730;SDS011;56996;48.138;11.538;2024-01-15T12:08:22;7.10;;;2.30;;
69730;SDS011;56996;48.138;11.538;2024-01-15T12:10:50;7.10;;;2.50;;
69730;SDS011;56996;48.138;11.538;2024-01-15T12:13:19;7.50;;;1.80;;
69730;SDS011;56996;48.138;11.538;2024-01-15T12:15:47;7.40;;;2.10;;
69730;SDS011;56996;48.138;11.538;2024-01-15T12:18:17;7.10;;;2.40;;
69730;SDS011;56996;48.138;11.538;2024-01-15T12:20:46;7.40;;;2.40;;
69730;SDS011;56996;48.138;11.538;2024-01-15T12:23:15;8.20;;;2.10;;
69730;SDS011;56996;48.138;11.538;2024-01-15T12:25:42;7.00;;;1.90;;
69730;SDS011;56996;48.138;11.538;2024-01-15T12:28:09;6.90;;;2.00;;
69730;SDS011;56996;48.138;11.538;2024-01-15T12:30:36;6.40;;;1.80;;
69730;SDS011;56996;48.138;11.538;2024-01-15T12:33:05;6.20;;;1.50;;
69730;SDS011;56996;48.138;11.538;2024-01-15T12:35:34;5.50;;;1.40;;
69730;SDS011;56996;48.138;11.538;2024-01-15T12:38:02;6.30;;;1.60;;
69730;SDS011;56996;48.138;11.538;2024-01-15T12:40:31;7.00;;;2.50;;
69730;SDS011;56996;48.138;11.538;2024-01-15T12:43:05;7.70;;;2.10;;
69730;SDS011;56996;48.138;11.538;2024-01-15T12:45:33;4.90;;;1.30;;
69730;SDS011;56996;48.138;11.538;2024-01-15T12:48:03;10.70;;;1.40;;
69730;SDS011;56996;48.138;11.538;2024-01-15T12:50:33;5.00;;;1.60;;
69730;SDS011;56996;48.138;11.538;2024-01-15T12:53:00;5.20;;;1.30;;
69730;SDS011;56996;48.138;11.538;2024-01-15T12:55:26;8.80;;;3.10;;
69730;SDS011;56996;48.138;11.538;2024-01-15T12:57:53;6.50;;;1.80;;
69730;SDS011;56996;48.138;11.538;2024-01-15T13:00:22;6.40;;;1.50;;
69730;SDS011;56996;48.138;11.538;2024-01-15T13:02:49;6.50;;;1.70;;
69730;SDS011;56996;48.138;11.538;2024-01-15T13:05:16;6.30;;;1.70;;
69730;SDS011;56996;48.138;11.538;2024-01-15T13:07:44;6.50;;;2.00;;
69730;SDS011;56996;48.138;11.538;2024-01-15T13:10:10;6.30;;;1.50;;
69730;SDS011;56996;48.138;11.538;2024-01-15T13:12:39;5.90;;;1.50;;
69730;SDS011;56996;48.138;11.538;2024-01-15T13:15:07;10.60;;;2.50;;
69730;SDS011;56996;48.138;11.538;2024-01-15T13:17:40;13.40;;;3.30;;
69730;SDS011;56996;48.138;11.538;2024-01-15T13:20:07;6.40;;;1.90;;
69730;SDS011;56996;48.138;11.538;2024-01-15T13:22:36;10.40;;;2.60;;
69730;SDS011;56996;48.138;11.538;2024-01-15T13:25:07;13.50;;;2.30;;
69730;SDS011;56996;48.138;11.538;2024-01-15T13:27:35;8.60;;;2.30;;
69730;SDS011;56996;48.138;11.538;2024-01-15T13:30:04;6.10;;;1.70;;
69730;SDS011;56996;48.138;11.538;2024-01-15T13:32:33;5.60;;;1.60;;
69730;SDS011;56996;48.138;11.538;2024-01-15T13:35:00;6.60;;;1.90;;
69730;SDS011;56996;48.138;11.538;2024-01-15T13:37:26;7.00;;;2.20;;
69730;SDS011;56996;48.138;11.538;2024-01-15T13:39:54;8.50;;;2.00;;
69730;SDS011;56996;48.138;11.538;2024-01-15T13:42:21;6.40;;;1.90;;
69730;SDS011;56996;48.138;11.538;2024-01-15T13:44:49;7.20;;;2.10;;
69730;SDS011;56996;48.138;11.538;2024-01-15T13:47:16;8.30;;;2.10;;
69730;SDS011;56996;48.138;11.538;2024-01-15T13:49:43;7.30;;;2.00;;
69730;SDS011;56996;48.138;11.538;2024-01-15T13:52:10;7.00;;;2.10;;
69730;SDS011;56996;48.138;11.538;2024-01-15T13:54:36;6.90;;;2.00;;
69730;SDS011;56996;48.138;11.538;2024-01-15T13:57:16;7.30;;;1.90;;
69730;SDS011;56996;48.138;11.538;2024-01-15T13:59:44;6.70;;;2.10;;
69730;SDS011;56996;48.138;11.538;2024-01-15T14:02:11;7.70;;;2.00;;
69730;SDS011;56996;48.138;11.538;2024-01-15T14:04:42;8.20;;;2.00;;
69730;SDS011;56996;48.138;11.538;2024-01-15T14:07:09;7.50;;;2.20;;
69730;SDS011;56996;48.138;11.538;2024-01-15T14:09:35;6.80;;;2.10;;
69730;SDS011;56996;48.138;11.538;2024-01-15T14:12:05;7.20;;;2.30;;
69730;SDS011;56996;48.138;11.538;2024-01-15T14:14:33;5.90;;;2.00;;
69730;SDS011;56996;48.138;11.538;2024-01-15T14:17:00;9.70;;;3.00;;
69730;SDS011;56996;48.138;11.538;2024-01-15T14:19:27;9.70;;;3.70;;
69730;SDS011;56996;48.138;11.538;2024-01-15T14:21:54;8.50;;;2.90;;
69730;SDS011;56996;48.138;11.538;2024-01-15T14:24:22;7.30;;;2.10;;
69730;SDS011;56996;48.138;11.538;2024-01-15T14:26:49;8.00;;;2.40;;
69730;SDS011;56996;48.138;11.538;2024-01-15T14:29:16;9.20;;;2.60;;
69730;SDS011;56996;48.138;11.538;2024-01-15T14:31:45;7.20;;;2.00;;
69730;SDS011;56996;48.138;11.538;2024-01-15T14:34:13;8.90;;;2.80;;
69730;SDS011;56996;48.138;11.538;2024-01-15T14:36:40;6.80;;;2.00;;